< < Back
Terminal Aerodrome Forecast


Current Version              Previous Versions:   1  2  3  4  5  6  7  8  9  

Terminal Aerodrome Forecast

588
FTUS42 KFFC 300533
TAFMCN
TAF
KMCN 300533Z 3006/3106 26004KT P6SM SCT250
     FM301400 28005KT P6SM FEW030
     FM301600 26007KT P6SM SCT050 PROB30 3020/3024 5SM -TSRA
      BKN035CB
     FM310000 24004KT P6SM SCT070 SCT250=

Latest METAR

662
SAUS80 KWBC 301100 RRA
MTRMCN
METAR KMCN 301053Z AUTO 19003KT 10SM CLR 23/21 A3001 RMK AO2 SLP156
T02330211 TSNO


USA.gov is the U.S. government's official web portal to all federal, state and local government web resources and services.